sensor_id;sensor_type;location;lat;lon;timestamp;pressure;altitude;pressure_sealevel;temperature;humidity
16194;BME280;8204;53.582;10.080;2024-03-07T00:02:14;102499.09;;;7.43;100.00
16194;BME280;8204;53.582;10.080;2024-03-07T00:04:39;102490.22;;;7.46;100.00
16194;BME280;8204;53.582;10.080;2024-03-07T00:07:05;102485.53;;;7.51;100.00
16194;BME280;8204;53.582;10.080;2024-03-07T00:09:32;102488.72;;;7.56;100.00
16194;BME280;8204;53.582;10.080;2024-03-07T00:11:58;102489.56;;;7.56;100.00
16194;BME280;8204;53.582;10.080;2024-03-07T00:14:24;102485.09;;;7.58;100.00
16194;BME280;8204;53.582;10.080;2024-03-07T00:16:55;102489.16;;;7.62;100.00
16194;BME280;8204;53.582;10.080;2024-03-07T00:19:22;102480.28;;;7.65;100.00
16194;BME280;8204;53.582;10.080;2024-03-07T00:21:52;102483.84;;;7.64;100.00
16194;BME280;8204;53.582;10.080;2024-03-07T00:24:18;102485.50;;;7.65;100.00
16194;BME280;8204;53.582;10.080;2024-03-07T00:26:44;102482.91;;;7.65;100.00
16194;BME280;8204;53.582;10.080;2024-03-07T00:29:09;102479.19;;;7.69;100.00
16194;BME280;8204;53.582;10.080;2024-03-07T00:31:35;102485.13;;;7.71;100.00
16194;BME280;8204;53.582;10.080;2024-03-07T00:34:01;102484.09;;;7.73;100.00
16194;BME280;8204;53.582;10.080;2024-03-07T00:36:26;102475.25;;;7.76;100.00
16194;BME280;8204;53.582;10.080;2024-03-07T00:42:07;102482.88;;;7.79;100.00
16194;BME280;8204;53.582;10.080;2024-03-07T00:44:33;102468.88;;;7.80;100.00
16194;BME280;8204;53.582;10.080;2024-03-07T00:47:00;102468.59;;;7.84;100.00
16194;BME280;8204;53.582;10.080;2024-03-07T00:49:25;102469.22;;;7.88;100.00
16194;BME280;8204;53.582;10.080;2024-03-07T00:51:50;102464.00;;;7.88;100.00
16194;BME280;8204;53.582;10.080;2024-03-07T00:54:16;102467.34;;;7.90;100.00
16194;BME280;8204;53.582;10.080;2024-03-07T00:56:42;102462.97;;;7.90;100.00
16194;BME280;8204;53.582;10.080;2024-03-07T00:59:07;102458.50;;;7.92;100.00
16194;BME280;8204;53.582;10.080;2024-03-07T01:01:33;102450.75;;;7.91;100.00
16194;BME280;8204;53.582;10.080;2024-03-07T01:04:00;102449.81;;;7.92;100.00
16194;BME280;8204;53.582;10.080;2024-03-07T01:06:26;102448.06;;;7.92;100.00
16194;BME280;8204;53.582;10.080;2024-03-07T01:08:52;102450.56;;;7.94;100.00
16194;BME280;8204;53.582;10.080;2024-03-07T01:11:18;102448.59;;;7.97;100.00
16194;BME280;8204;53.582;10.080;2024-03-07T01:13:44;102451.72;;;8.02;100.00
16194;BME280;8204;53.582;10.080;2024-03-07T01:16:10;102461.13;;;8.04;100.00
16194;BME280;8204;53.582;10.080;2024-03-07T01:18:37;102453.94;;;8.08;100.00
16194;BME280;8204;53.582;10.080;2024-03-07T01:21:06;102446.91;;;8.08;100.00
16194;BME280;8204;53.582;10.080;2024-03-07T01:23:31;102456.44;;;8.09;100.00
16194;BME280;8204;53.582;10.080;2024-03-07T01:25:58;102453.81;;;8.09;100.00
16194;BME280;8204;53.582;10.080;2024-03-07T01:28:25;102451.31;;;8.08;100.00
16194;BME280;8204;53.582;10.080;2024-03-07T01:30:51;102453.00;;;8.09;100.00
16194;BME280;8204;53.582;10.080;2024-03-07T01:33:18;102448.81;;;8.06;100.00
16194;BME280;8204;53.582;10.080;2024-03-07T01:35:44;102439.31;;;8.05;100.00
16194;BME280;8204;53.582;10.080;2024-03-07T01:38:10;102441.81;;;8.07;100.00
16194;BME280;8204;53.582;10.080;2024-03-07T01:40:39;102439.00;;;8.10;100.00
16194;BME280;8204;53.582;10.080;2024-03-07T01:43:06;102448.59;;;8.09;100.00
16194;BME280;8204;53.582;10.080;2024-03-07T01:45:32;102442.34;;;8.12;100.00
16194;BME280;8204;53.582;10.080;2024-03-07T01:47:57;102439.84;;;8.10;100.00
16194;BME280;8204;53.582;10.080;2024-03-07T01:50:23;102442.25;;;8.13;100.00
16194;BME280;8204;53.582;10.080;2024-03-07T01:52:49;102451.97;;;8.11;100.00
16194;BME280;8204;53.582;10.080;2024-03-07T01:55:21;102451.13;;;8.11;100.00
16194;BME280;8204;53.582;10.080;2024-03-07T01:57:47;102459.03;;;8.09;100.00
16194;BME280;8204;53.582;10.080;2024-03-07T02:00:12;102453.81;;;8.09;100.00
16194;BME280;8204;53.582;10.080;2024-03-07T02:02:38;102446.72;;;8.11;100.00
16194;BME280;8204;53.582;10.080;2024-03-07T02:05:04;102450.38;;;8.09;100.00
16194;BME280;8204;53.582;10.080;2024-03-07T02:07:32;102449.44;;;8.10;100.00
16194;BME280;8204;53.582;10.080;2024-03-07T02:10:02;102446.84;;;8.10;100.00
16194;BME280;8204;53.582;10.080;2024-03-07T02:12:29;102451.13;;;8.11;100.00
16194;BME280;8204;53.582;10.080;2024-03-07T02:14:56;102454.69;;;8.10;100.00
16194;BME280;8204;53.582;10.080;2024-03-07T02:17:23;102450.28;;;8.10;100.00
16194;BME280;8204;53.582;10.080;2024-03-07T02:19:49;102448.41;;;8.12;100.00
16194;BME280;8204;53.582;10.080;2024-03-07T02:22:14;102453.44;;;8.15;100.00
16194;BME280;8204;53.582;10.080;2024-03-07T02:24:39;102447.28;;;8.16;100.00
16194;BME280;8204;53.582;10.080;2024-03-07T02:27:05;102451.38;;;8.20;100.00
16194;BME280;8204;53.582;10.080;2024-03-07T02:29:30;102452.31;;;8.19;100.00
16194;BME280;8204;53.582;10.080;2024-03-07T02:31:56;102455.69;;;8.21;100.00
16194;BME280;8204;53.582;10.080;2024-03-07T02:34:22;102442.50;;;8.23;100.00
16194;BME280;8204;53.582;10.080;2024-03-07T02:36:47;102454.63;;;8.24;100.00
16194;BME280;8204;53.582;10.080;2024-03-07T02:39:12;102453.78;;;8.23;100.00
16194;BME280;8204;53.582;10.080;2024-03-07T02:41:38;102453.78;;;8.23;100.00
16194;BME280;8204;53.582;10.080;2024-03-07T02:44:03;102462.47;;;8.24;100.00
16194;BME280;8204;53.582;10.080;2024-03-07T02:46:29;102457.44;;;8.21;100.00
16194;BME280;8204;53.582;10.080;2024-03-07T02:48:54;102457.44;;;8.21;100.00
16194;BME280;8204;53.582;10.080;2024-03-07T02:51:20;102455.03;;;8.18;100.00
16194;BME280;8204;53.582;10.080;2024-03-07T02:53:45;102446.16;;;8.20;100.00
16194;BME280;8204;53.582;10.080;2024-03-07T02:56:11;102449.72;;;8.19;100.00
16194;BME280;8204;53.582;10.080;2024-03-07T02:58:37;102447.22;;;8.18;100.00
16194;BME280;8204;53.582;10.080;2024-03-07T03:01:02;102443.63;;;8.19;100.00
16194;BME280;8204;53.582;10.080;2024-03-07T03:03:31;102454.31;;;8.16;100.00
16194;BME280;8204;53.582;10.080;2024-03-07T03:05:57;102458.66;;;8.15;100.00
16194;BME280;8204;53.582;10.080;2024-03-07T03:08:23;102451.81;;;8.14;100.00
16194;BME280;8204;53.582;10.080;2024-03-07T03:10:49;102447.41;;;8.15;100.00
16194;BME280;8204;53.582;10.080;2024-03-07T03:13:17;102452.69;;;8.13;100.00
16194;BME280;8204;53.582;10.080;2024-03-07T03:15:43;102458.34;;;8.07;100.00
16194;BME280;8204;53.582;10.080;2024-03-07T03:18:08;102450.69;;;8.04;100.00
16194;BME280;8204;53.582;10.080;2024-03-07T03:20:35;102451.91;;;7.99;100.00
16194;BME280;8204;53.582;10.080;2024-03-07T03:23:05;102445.88;;;7.98;100.00
16194;BME280;8204;53.582;10.080;2024-03-07T03:25:32;102446.06;;;7.95;100.00
16194;BME280;8204;53.582;10.080;2024-03-07T03:28:05;102451.28;;;7.95;100.00
16194;BME280;8204;53.582;10.080;2024-03-07T03:30:32;102450.56;;;7.94;100.00
16194;BME280;8204;53.582;10.080;2024-03-07T03:32:58;102442.72;;;7.94;100.00
16194;BME280;8204;53.582;10.080;2024-03-07T03:35:24;102447.22;;;7.92;100.00
16194;BME280;8204;53.582;10.080;2024-03-07T03:37:50;102444.59;;;7.92;100.00
16194;BME280;8204;53.582;10.080;2024-03-07T03:40:15;102446.78;;;7.85;100.00
16194;BME280;8204;53.582;10.080;2024-03-07T03:42:42;102453.13;;;7.81;100.00
16194;BME280;8204;53.582;10.080;2024-03-07T03:45:09;102453.34;;;7.78;100.00
16194;BME280;8204;53.582;10.080;2024-03-07T03:47:37;102446.34;;;7.79;100.00
16194;BME280;8204;53.582;10.080;2024-03-07T03:50:07;102444.53;;;7.79;100.00
16194;BME280;8204;53.582;10.080;2024-03-07T03:52:33;102440.19;;;7.80;100.00
16194;BME280;8204;53.582;10.080;2024-03-07T03:55:02;102448.84;;;7.80;100.00
16194;BME280;8204;53.582;10.080;2024-03-07T03:57:29;102451.56;;;7.79;100.00
16194;BME280;8204;53.582;10.080;2024-03-07T03:59:56;102445.59;;;7.77;100.00
16194;BME280;8204;53.582;10.080;2024-03-07T04:02:22;102449.34;;;7.73;100.00
16194;BME280;8204;53.582;10.080;2024-03-07T04:04:49;102446.63;;;7.74;100.00
16194;BME280;8204;53.582;10.080;2024-03-07T04:07:15;102448.59;;;7.71;100.00
16194;BME280;8204;53.582;10.080;2024-03-07T04:09:47;102454.56;;;7.73;100.00
16194;BME280;8204;53.582;10.080;2024-03-07T04:12:13;102455.78;;;7.67;100.00
16194;BME280;8204;53.582;10.080;2024-03-07T04:14:40;102454.03;;;7.68;100.00
16194;BME280;8204;53.582;10.080;2024-03-07T04:17:09;102456.63;;;7.68;100.00
16194;BME280;8204;53.582;10.080;2024-03-07T04:19:39;102454.84;;;7.68;100.00
16194;BME280;8204;53.582;10.080;2024-03-07T04:22:04;102462.25;;;7.62;100.00
16194;BME280;8204;53.582;10.080;2024-03-07T04:24:36;102463.06;;;7.62;100.00
16194;BME280;8204;53.582;10.080;2024-03-07T04:27:02;102466.63;;;7.61;100.00
16194;BME280;8204;53.582;10.080;2024-03-07T04:29:32;102470.78;;;7.64;100.00
16194;BME280;8204;53.582;10.080;2024-03-07T04:31:57;102474.44;;;7.61;100.00
16194;BME280;8204;53.582;10.080;2024-03-07T04:34:23;102473.63;;;7.61;100.00
16194;BME280;8204;53.582;10.080;2024-03-07T04:36:49;102476.63;;;7.55;100.00
16194;BME280;8204;53.582;10.080;2024-03-07T04:39:14;102474.06;;;7.53;100.00
16194;BME280;8204;53.582;10.080;2024-03-07T04:41:51;102485.53;;;7.51;100.00
16194;BME280;8204;53.582;10.080;2024-03-07T04:44:19;102487.44;;;7.49;100.00
16194;BME280;8204;53.582;10.080;2024-03-07T04:46:48;102490.97;;;7.48;100.00
16194;BME280;8204;53.582;10.080;2024-03-07T04:49:15;102494.41;;;7.48;100.00
16194;BME280;8204;53.582;10.080;2024-03-07T04:51:40;102499.50;;;7.50;100.00
16194;BME280;8204;53.582;10.080;2024-03-07T04:54:06;102497.88;;;7.49;100.00
16194;BME280;8204;53.582;10.080;2024-03-07T04:56:32;102506.78;;;7.45;100.00
16194;BME280;8204;53.582;10.080;2024-03-07T04:58:57;102503.25;;;7.46;100.00
16194;BME280;8204;53.582;10.080;2024-03-07T05:01:23;102504.13;;;7.46;100.00
16194;BME280;8204;53.582;10.080;2024-03-07T05:03:48;102502.63;;;7.42;100.00
16194;BME280;8204;53.582;10.080;2024-03-07T05:06:14;102498.53;;;7.38;100.00
16194;BME280;8204;53.582;10.080;2024-03-07T05:08:42;102504.69;;;7.37;100.00
16194;BME280;8204;53.582;10.080;2024-03-07T05:11:07;102496.97;;;7.36;100.00
16194;BME280;8204;53.582;10.080;2024-03-07T05:13:33;102507.56;;;7.33;100.00
16194;BME280;8204;53.582;10.080;2024-03-07T05:15:58;102517.25;;;7.31;100.00
16194;BME280;8204;53.582;10.080;2024-03-07T05:18:25;102516.59;;;7.27;100.00
16194;BME280;8204;53.582;10.080;2024-03-07T05:20:50;102518.47;;;7.25;100.00
16194;BME280;8204;53.582;10.080;2024-03-07T05:23:16;102524.78;;;7.22;100.00
16194;BME280;8204;53.582;10.080;2024-03-07T05:25:42;102525.81;;;7.19;100.00
16194;BME280;8204;53.582;10.080;2024-03-07T05:28:11;102533.75;;;7.18;100.00
16194;BME280;8204;53.582;10.080;2024-03-07T05:30:37;102536.84;;;7.10;100.00
16194;BME280;8204;53.582;10.080;2024-03-07T05:33:02;102537.75;;;7.09;100.00
16194;BME280;8204;53.582;10.080;2024-03-07T05:35:28;102551.22;;;7.02;100.00
16194;BME280;8204;53.582;10.080;2024-03-07T05:37:56;102555.06;;;6.96;100.00
16194;BME280;8204;53.582;10.080;2024-03-07T05:40:22;102554.41;;;6.93;100.00
16194;BME280;8204;53.582;10.080;2024-03-07T05:42:48;102563.97;;;6.92;100.00
16194;BME280;8204;53.582;10.080;2024-03-07T05:45:14;102561.56;;;6.89;100.00
16194;BME280;8204;53.582;10.080;2024-03-07T05:47:40;102565.09;;;6.88;100.00
16194;BME280;8204;53.582;10.080;2024-03-07T05:50:06;102561.94;;;6.83;100.00
16194;BME280;8204;53.582;10.080;2024-03-07T05:52:32;102572.41;;;6.82;100.00
16194;BME280;8204;53.582;10.080;2024-03-07T05:54:58;102569.75;;;6.83;100.00
16194;BME280;8204;53.582;10.080;2024-03-07T05:57:23;102569.66;;;6.85;100.00
16194;BME280;8204;53.582;10.080;2024-03-07T05:59:50;102567.81;;;6.87;100.00
16194;BME280;8204;53.582;10.080;2024-03-07T06:02:16;102573.75;;;6.89;100.00
16194;BME280;8204;53.582;10.080;2024-03-07T06:04:42;102571.22;;;6.87;100.00
16194;BME280;8204;53.582;10.080;2024-03-07T06:07:08;102567.69;;;6.88;100.00
16194;BME280;8204;53.582;10.080;2024-03-07T06:09:36;102573.75;;;6.89;100.00
16194;BME280;8204;53.582;10.080;2024-03-07T06:12:03;102568.53;;;6.89;100.00
16194;BME280;8204;53.582;10.080;2024-03-07T06:14:29;102581.50;;;6.90;100.00
16194;BME280;8204;53.582;10.080;2024-03-07T06:16:55;102573.56;;;6.92;100.00
16194;BME280;8204;53.582;10.080;2024-03-07T06:19:23;102575.31;;;6.91;100.00
16194;BME280;8204;53.582;10.080;2024-03-07T06:21:48;102578.03;;;6.90;100.00
16194;BME280;8204;53.582;10.080;2024-03-07T06:24:14;102583.13;;;6.91;100.00
16194;BME280;8204;53.582;10.080;2024-03-07T06:26:40;102584.81;;;6.92;100.00
16194;BME280;8204;53.582;10.080;2024-03-07T06:29:08;102567.44;;;6.93;100.00
16194;BME280;8204;53.582;10.080;2024-03-07T06:31:37;102585.69;;;6.93;100.00
16194;BME280;8204;53.582;10.080;2024-03-07T06:34:02;102584.16;;;6.89;100.00
16194;BME280;8204;53.582;10.080;2024-03-07T06:36:28;102595.59;;;6.86;100.00
16194;BME280;8204;53.582;10.080;2024-03-07T06:38:54;102592.94;;;6.88;100.00
16194;BME280;8204;53.582;10.080;2024-03-07T06:41:20;102592.06;;;6.87;100.00
16194;BME280;8204;53.582;10.080;2024-03-07T06:43:45;102601.56;;;6.88;100.00
16194;BME280;8204;53.582;10.080;2024-03-07T06:46:11;102600.00;;;6.86;100.00
16194;BME280;8204;53.582;10.080;2024-03-07T06:48:41;102603.69;;;6.82;100.00
16194;BME280;8204;53.582;10.080;2024-03-07T06:51:07;102606.22;;;6.83;100.00
16194;BME280;8204;53.582;10.080;2024-03-07T06:53:32;102614.19;;;6.80;100.00
16194;BME280;8204;53.582;10.080;2024-03-07T06:55:58;102625.38;;;6.82;100.00
16194;BME280;8204;53.582;10.080;2024-03-07T06:58:23;102620.34;;;6.79;100.00
16194;BME280;8204;53.582;10.080;2024-03-07T07:00:49;102616.81;;;6.80;100.00
16194;BME280;8204;53.582;10.080;2024-03-07T07:03:20;102611.69;;;6.79;100.00
16194;BME280;8204;53.582;10.080;2024-03-07T07:05:48;102612.88;;;6.73;100.00
16194;BME280;8204;53.582;10.080;2024-03-07T07:08:13;102619.78;;;6.74;100.00
16194;BME280;8204;53.582;10.080;2024-03-07T07:10:39;102613.63;;;6.75;100.00
16194;BME280;8204;53.582;10.080;2024-03-07T07:13:09;102621.44;;;6.75;100.00
16194;BME280;8204;53.582;10.080;2024-03-07T07:15:35;102623.19;;;6.75;100.00
16194;BME280;8204;53.582;10.080;2024-03-07T07:18:03;102624.22;;;6.72;100.00
16194;BME280;8204;53.582;10.080;2024-03-07T07:20:29;102625.75;;;6.76;100.00
16194;BME280;8204;53.582;10.080;2024-03-07T07:22:55;102630.75;;;6.79;100.00
16194;BME280;8204;53.582;10.080;2024-03-07T07:25:23;102627.31;;;6.79;100.00
16194;BME280;8204;53.582;10.080;2024-03-07T07:27:50;102628.16;;;6.79;100.00
16194;BME280;8204;53.582;10.080;2024-03-07T07:30:19;102638.19;;;6.71;100.00
16194;BME280;8204;53.582;10.080;2024-03-07T07:32:45;102631.13;;;6.73;100.00
16194;BME280;8204;53.582;10.080;2024-03-07T07:35:12;102631.13;;;6.73;100.00
16194;BME280;8204;53.582;10.080;2024-03-07T07:37:41;102632.22;;;6.69;100.00
16194;BME280;8204;53.582;10.080;2024-03-07T07:40:09;102638.38;;;6.68;100.00
16194;BME280;8204;53.582;10.080;2024-03-07T07:42:38;102644.59;;;6.66;100.00
16194;BME280;8204;53.582;10.080;2024-03-07T07:45:06;102639.38;;;6.66;100.00
16194;BME280;8204;53.582;10.080;2024-03-07T07:47:31;102635.00;;;6.66;100.00
16194;BME280;8204;53.582;10.080;2024-03-07T07:49:58;102636.69;;;6.67;100.00
16194;BME280;8204;53.582;10.080;2024-03-07T07:52:23;102641.72;;;6.70;100.00
16194;BME280;8204;53.582;10.080;2024-03-07T07:54:48;102636.41;;;6.72;100.00
16194;BME280;8204;53.582;10.080;2024-03-07T07:57:14;102634.47;;;6.75;100.00
16194;BME280;8204;53.582;10.080;2024-03-07T07:59:39;102638.00;;;6.74;100.00
16194;BME280;8204;53.582;10.080;2024-03-07T08:02:05;102635.69;;;6.54;100.00
16194;BME280;8204;53.582;10.080;2024-03-07T08:04:31;102639.91;;;6.57;100.00
16194;BME280;8204;53.582;10.080;2024-03-07T08:06:57;102631.91;;;6.60;100.00
16194;BME280;8204;53.582;10.080;2024-03-07T08:09:23;102635.25;;;6.62;100.00
16194;BME280;8204;53.582;10.080;2024-03-07T08:11:48;102627.53;;;6.60;100.00
16194;BME280;8204;53.582;10.080;2024-03-07T08:14:15;102636.13;;;6.62;100.00
16194;BME280;8204;53.582;10.080;2024-03-07T08:16:41;102631.66;;;6.64;100.00
16194;BME280;8204;53.582;10.080;2024-03-07T08:19:06;102639.13;;;6.70;100.00
16194;BME280;8204;53.582;10.080;2024-03-07T08:21:32;102633.00;;;6.71;100.00
16194;BME280;8204;53.582;10.080;2024-03-07T08:23:58;102628.59;;;6.72;100.00
16194;BME280;8204;53.582;10.080;2024-03-07T08:26:23;102629.63;;;6.69;100.00
16194;BME280;8204;53.582;10.080;2024-03-07T08:28:48;102621.63;;;6.72;100.00
16194;BME280;8204;53.582;10.080;2024-03-07T08:31:14;102627.44;;;6.77;100.00
16194;BME280;8204;53.582;10.080;2024-03-07T08:33:39;102632.44;;;6.80;100.00
16194;BME280;8204;53.582;10.080;2024-03-07T08:36:05;102630.50;;;6.84;100.00
16194;BME280;8204;53.582;10.080;2024-03-07T08:38:32;102629.31;;;6.89;100.00
16194;BME280;8204;53.582;10.080;2024-03-07T08:40:58;102632.59;;;6.93;100.00
16194;BME280;8204;53.582;10.080;2024-03-07T08:43:25;102629.72;;;6.97;100.00
16194;BME280;8204;53.582;10.080;2024-03-07T08:45:52;102621.53;;;7.03;100.00
16194;BME280;8204;53.582;10.080;2024-03-07T08:48:18;102622.25;;;7.05;100.00
16194;BME280;8204;53.582;10.080;2024-03-07T08:50:44;102621.44;;;7.05;100.00
16194;BME280;8204;53.582;10.080;2024-03-07T08:53:10;102623.84;;;7.08;100.00
16194;BME280;8204;53.582;10.080;2024-03-07T08:55:35;102623.56;;;7.12;100.00
16194;BME280;8204;53.582;10.080;2024-03-07T08:58:01;102611.47;;;7.11;100.00
16194;BME280;8204;53.582;10.080;2024-03-07T09:00:27;102622.09;;;7.08;100.00
16194;BME280;8204;53.582;10.080;2024-03-07T09:02:57;102620.03;;;7.13;100.00
16194;BME280;8204;53.582;10.080;2024-03-07T09:05:24;102626.28;;;7.11;100.00
16194;BME280;8204;53.582;10.080;2024-03-07T09:07:51;102627.31;;;7.08;100.00
16194;BME280;8204;53.582;10.080;2024-03-07T09:10:17;102625.16;;;7.15;100.00
16194;BME280;8204;53.582;10.080;2024-03-07T09:12:43;102611.13;;;7.17;100.00
16194;BME280;8204;53.582;10.080;2024-03-07T09:15:09;102622.47;;;7.16;100.00
16194;BME280;8204;53.582;10.080;2024-03-07T09:17:38;102622.47;;;7.16;100.00
16194;BME280;8204;53.582;10.080;2024-03-07T09:20:07;102616.41;;;7.16;100.00
16194;BME280;8204;53.582;10.080;2024-03-07T09:22:34;102618.19;;;7.15;100.00
16194;BME280;8204;53.582;10.080;2024-03-07T09:25:00;102612.97;;;7.15;100.00
16194;BME280;8204;53.582;10.080;2024-03-07T09:27:26;102608.69;;;7.14;100.00
16194;BME280;8204;53.582;10.080;2024-03-07T09:29:52;102609.88;;;7.09;100.00
16194;BME280;8204;53.582;10.080;2024-03-07T09:32:18;102605.53;;;7.09;100.00
16194;BME280;8204;53.582;10.080;2024-03-07T09:34:47;102609.41;;;7.02;100.00
16194;BME280;8204;53.582;10.080;2024-03-07T09:37:12;102607.91;;;6.98;100.00
16194;BME280;8204;53.582;10.080;2024-03-07T09:39:38;102595.06;;;6.95;100.00
16194;BME280;8204;53.582;10.080;2024-03-07T09:42:07;102599.00;;;7.02;100.00
16194;BME280;8204;53.582;10.080;2024-03-07T09:44:38;102596.03;;;7.08;100.00
16194;BME280;8204;53.582;10.080;2024-03-07T09:47:05;102603.47;;;7.14;100.00
16194;BME280;8204;53.582;10.080;2024-03-07T09:49:32;102595.19;;;7.22;100.00
16194;BME280;8204;53.582;10.080;2024-03-07T09:52:00;102596.59;;;7.27;100.00
16194;BME280;8204;53.582;10.080;2024-03-07T09:54:26;102602.47;;;7.30;100.00
16194;BME280;8204;53.582;10.080;2024-03-07T09:56:53;102595.28;;;7.34;100.00
16194;BME280;8204;53.582;10.080;2024-03-07T09:59:24;102595.84;;;7.39;100.00
16194;BME280;8204;53.582;10.080;2024-03-07T10:01:55;102601.06;;;7.39;100.00
16194;BME280;8204;53.582;10.080;2024-03-07T10:04:29;102597.53;;;7.40;100.00
16194;BME280;8204;53.582;10.080;2024-03-07T10:06:55;102595.56;;;7.43;100.00
16194;BME280;8204;53.582;10.080;2024-03-07T10:09:22;102588.41;;;7.47;100.00
16194;BME280;8204;53.582;10.080;2024-03-07T10:11:59;102597.91;;;7.48;100.00
16194;BME280;8204;53.582;10.080;2024-03-07T10:14:25;102586.34;;;7.52;100.00
16194;BME280;8204;53.582;10.080;2024-03-07T10:16:54;102588.03;;;7.53;100.00
16194;BME280;8204;53.582;10.080;2024-03-07T10:19:22;102581.88;;;7.54;100.00
16194;BME280;8204;53.582;10.080;2024-03-07T10:21:48;102577.41;;;7.56;100.00
16194;BME280;8204;53.582;10.080;2024-03-07T10:24:14;102580.75;;;7.58;100.00
16194;BME280;8204;53.582;10.080;2024-03-07T10:26:40;102572.53;;;7.64;100.00
16194;BME280;8204;53.582;10.080;2024-03-07T10:29:08;102567.88;;;7.69;100.00
16194;BME280;8204;53.582;10.080;2024-03-07T10:31:35;102569.19;;;7.76;100.00
16194;BME280;8204;53.582;10.080;2024-03-07T10:34:03;102571.19;;;7.85;100.00
16194;BME280;8204;53.582;10.080;2024-03-07T10:36:32;102572.19;;;7.96;100.00
16194;BME280;8204;53.582;10.080;2024-03-07T10:39:02;102562.94;;;8.04;100.00
16194;BME280;8204;53.582;10.080;2024-03-07T10:41:47;102566.69;;;8.14;100.00
16194;BME280;8204;53.582;10.080;2024-03-07T10:44:19;102564.59;;;8.19;100.00
16194;BME280;8204;53.582;10.080;2024-03-07T10:46:52;102566.59;;;8.28;100.00
16194;BME280;8204;53.582;10.080;2024-03-07T10:49:19;102564.53;;;8.33;100.00
16194;BME280;8204;53.582;10.080;2024-03-07T10:52:02;102557.34;;;8.37;100.00
16194;BME280;8204;53.582;10.080;2024-03-07T10:54:36;102554.41;;;8.41;100.00
16194;BME280;8204;53.582;10.080;2024-03-07T11:00:00;102563.00;;;8.43;100.00
16194;BME280;8204;53.582;10.080;2024-03-07T11:02:42;102550.25;;;8.51;100.00
16194;BME280;8204;53.582;10.080;2024-03-07T11:05:10;102553.41;;;8.56;100.00
16194;BME280;8204;53.582;10.080;2024-03-07T11:07:38;102554.47;;;8.66;100.00
16194;BME280;8204;53.582;10.080;2024-03-07T11:10:05;102554.06;;;8.72;100.00
16194;BME280;8204;53.582;10.080;2024-03-07T11:12:38;102560.63;;;8.77;100.00
16194;BME280;8204;53.582;10.080;2024-03-07T11:15:06;102555.13;;;8.82;100.00
16194;BME280;8204;53.582;10.080;2024-03-07T11:17:32;102559.28;;;8.84;100.00
16194;BME280;8204;53.582;10.080;2024-03-07T11:20:26;102552.81;;;8.90;100.00
16194;BME280;8204;53.582;10.080;2024-03-07T11:22:52;102549.59;;;8.99;100.00
16194;BME280;8204;53.582;10.080;2024-03-07T11:25:26;102542.38;;;9.02;100.00
16194;BME280;8204;53.582;10.080;2024-03-07T11:27:55;102543.63;;;9.09;100.00
16194;BME280;8204;53.582;10.080;2024-03-07T11:30:21;102541.31;;;9.05;100.00
16194;BME280;8204;53.582;10.080;2024-03-07T11:32:49;102535.97;;;9.06;100.00
16194;BME280;8204;53.582;10.080;2024-03-07T11:35:31;102543.28;;;9.14;100.00
16194;BME280;8204;53.582;10.080;2024-03-07T11:37:58;102532.75;;;9.15;100.00
16194;BME280;8204;53.582;10.080;2024-03-07T11:42:51;102529.78;;;9.20;100.00
16194;BME280;8204;53.582;10.080;2024-03-07T11:45:19;102533.88;;;9.24;100.00
16194;BME280;8204;53.582;10.080;2024-03-07T11:47:52;102532.72;;;9.28;100.00
16194;BME280;8204;53.582;10.080;2024-03-07T11:50:34;102538.88;;;9.27;100.00
16194;BME280;8204;53.582;10.080;2024-03-07T11:53:01;102528.53;;;9.25;100.00
16194;BME280;8204;53.582;10.080;2024-03-07T11:55:27;102532.09;;;9.24;100.00
16194;BME280;8204;53.582;10.080;2024-03-07T11:57:59;102528.53;;;9.25;100.00
16194;BME280;8204;53.582;10.080;2024-03-07T12:00:27;102526.16;;;9.22;100.00
16194;BME280;8204;53.582;10.080;2024-03-07T12:02:56;102524.16;;;9.26;100.00
16194;BME280;8204;53.582;10.080;2024-03-07T12:05:22;102521.44;;;9.27;100.00
16194;BME280;8204;53.582;10.080;2024-03-07T12:07:48;102517.03;;;9.28;100.00
16194;BME280;8204;53.582;10.080;2024-03-07T12:10:15;102518.94;;;9.26;100.00
16194;BME280;8204;53.582;10.080;2024-03-07T12:12:41;102506.56;;;9.28;100.00
16194;BME280;8204;53.582;10.080;2024-03-07T12:15:08;102513.47;;;9.29;100.00
16194;BME280;8204;53.582;10.080;2024-03-07T12:17:45;102506.78;;;9.25;100.00
16194;BME280;8204;53.582;10.080;2024-03-07T12:20:12;102503.56;;;9.21;100.00
16194;BME280;8204;53.582;10.080;2024-03-07T12:22:51;102500.63;;;9.26;100.00
16194;BME280;8204;53.582;10.080;2024-03-07T12:25:22;102497.88;;;9.27;100.00
16194;BME280;8204;53.582;10.080;2024-03-07T12:33:10;102484.94;;;9.49;100.00
16194;BME280;8204;53.582;10.080;2024-03-07T12:35:39;102481.78;;;9.56;100.00
16194;BME280;8204;53.582;10.080;2024-03-07T12:38:08;102476.84;;;9.64;100.00
16194;BME280;8204;53.582;10.080;2024-03-07T12:40:35;102481.41;;;9.73;100.00
16194;BME280;8204;53.582;10.080;2024-03-07T12:43:12;102478.13;;;9.82;100.00
16194;BME280;8204;53.582;10.080;2024-03-07T12:45:43;102473.19;;;9.90;100.00
16194;BME280;8204;53.582;10.080;2024-03-07T12:48:09;102468.03;;;9.89;100.00
16194;BME280;8204;53.582;10.080;2024-03-07T12:50:35;102475.88;;;9.89;100.00
16194;BME280;8204;53.582;10.080;2024-03-07T12:53:01;102475.69;;;9.92;100.00
16194;BME280;8204;53.582;10.080;2024-03-07T12:55:30;102478.78;;;9.97;100.00
16194;BME280;8204;53.582;10.080;2024-03-07T12:57:56;102471.81;;;9.97;100.00
16194;BME280;8204;53.582;10.080;2024-03-07T13:00:22;102468.22;;;9.98;100.00
16194;BME280;8204;53.582;10.080;2024-03-07T13:02:48;102470.38;;;10.04;100.00
16194;BME280;8204;53.582;10.080;2024-03-07T13:05:14;102467.56;;;10.07;100.00